Terminal Aerodrome Forecast
Issued by NWS La Crosse, WI

Home | Current Version | Previous Version | Text Only | Print | Product List | Glossary On
Versions: 1 2 3 4 5 6 7 8 9 10 11 12 13 14 15 16 17 18 19 20 21 22 23 24 25 26
291
FTUS43 KARX 221728
TAFRST
TAF
KRST 221728Z 2218/2318 14012KT P6SM FEW200
     FM230000 14008KT P6SM BKN090
     FM230300 15015KT P6SM OVC090
     FM231500 16017G24KT P6SM OVC020=

USA.gov is the U.S. government's official web portal to all federal, state and local government web resources and services.